Kings Canyon National Pk, California
Current Conditions -  °F | °C
As of 4:56 AM on Tuesday 21 Oct 2014 (Local Time) from KBIH Reporting Station
Clear Clear  
Wind Chill: 46°   Ceiling: Unl
Heat Index: 49°   Visibility: 10mi
Dew Point: 20°   Wind: 7mph
Humidity: 32%   Direction: 260°W
Pressure: 29.94"   Gusts: NA
Location:  36.7872°N, 118.66°W
Report Text: KBIH 211156Z AUTO 26006KT 10SM CLR 09/M07 A2994 RMK AO2 SLP099 T00941067 10133 20067 51010
Loading
Personal Weather Stations






























Interactive Weather Map New forecast layout! Learn more

10-Day Weather Forecast

Advertisements
Track Severe Weather on mobile